Time;durP1;ratioP1;P1;durP2;ratioP2;P2;SDS_P1;SDS_P2;PMS_P1;PMS_P2;Temp;Humidity;BMP_temperature;BMP_pressure;BME280_temperature;BME280_humidity;BME280_pressure;Samples;Min_cycle;Max_cycle;Signal;HPM_P1;HPM_P2
2023/09/13 00:01:55;;;;;;;6.13;5.43;;;;;;;18.51;100.00;100324.59;4947476;28;20715;-82
2023/09/13 00:04:21;;;;;;;8.30;5.43;;;;;;;18.48;100.00;100332.16;4950865;28;20258;-80
2023/09/13 00:06:48;;;;;;;7.40;5.60;;;;;;;18.44;100.00;100338.88;4954784;28;20665;-80
2023/09/13 00:09:15;;;;;;;6.07;5.57;;;;;;;18.42;100.00;100349.81;4954271;28;20231;-80
2023/09/13 00:11:42;;;;;;;8.07;6.27;;;;;;;18.40;100.00;100343.72;4951478;28;20243;-80
2023/09/13 00:14:08;;;;;;;7.37;5.47;;;;;;;18.38;100.00;100345.72;4953006;28;20222;-80
2023/09/13 00:16:35;;;;;;;7.90;5.80;;;;;;;18.37;100.00;100347.56;4951911;28;20740;-81
2023/09/13 00:19:04;;;;;;;6.80;6.10;;;;;;;18.37;100.00;100358.34;4950754;28;20672;-80
2023/09/13 00:21:31;;;;;;;6.20;5.30;;;;;;;18.37;100.00;100349.41;4954657;28;20219;-80
2023/09/13 00:23:57;;;;;;;8.17;5.90;;;;;;;18.36;100.00;100351.28;4946676;28;20258;-80
2023/09/13 00:26:24;;;;;;;6.27;5.53;;;;;;;18.37;100.00;100358.34;4955182;28;20220;-80
2023/09/13 00:28:51;;;;;;;6.13;5.53;;;;;;;18.37;100.00;100349.41;4949007;28;20225;-80
2023/09/13 00:31:17;;;;;;;6.73;5.80;;;;;;;18.36;100.00;100345.88;4958480;28;20215;-80
2023/09/13 00:33:44;;;;;;;7.00;4.73;;;;;;;18.36;100.00;100345.88;4952613;28;20212;-80
2023/09/13 00:36:12;;;;;;;6.17;5.07;;;;;;;18.37;100.00;100349.41;4945538;28;20589;-80
2023/09/13 00:38:38;;;;;;;5.23;4.63;;;;;;;18.33;100.00;100353.41;4951772;28;20222;-81
2023/09/13 00:41:05;;;;;;;7.80;5.27;;;;;;;18.33;100.00;100356.13;4951033;28;20621;-81
2023/09/13 00:43:31;;;;;;;4.87;4.33;;;;;;;18.34;100.00;100360.50;4949361;28;20231;-80
2023/09/13 00:45:58;;;;;;;5.60;4.97;;;;;;;18.34;100.00;100360.50;4954583;28;20234;-80
2023/09/13 00:48:26;;;;;;;5.33;4.83;;;;;;;18.34;100.00;100358.66;4949407;28;20594;-81
2023/09/13 00:50:53;;;;;;;6.07;4.63;;;;;;;18.33;100.00;100372.28;4966300;28;20261;-80
2023/09/13 00:53:21;;;;;;;5.47;4.87;;;;;;;18.32;100.00;100382.22;4948672;28;20623;-81
2023/09/13 00:55:49;;;;;;;5.70;5.07;;;;;;;18.32;100.00;100379.53;4949525;28;20207;-81
2023/09/13 00:58:18;;;;;;;5.50;4.87;;;;;;;18.34;100.00;100382.94;4944462;28;20236;-81
2023/09/13 01:00:45;;;;;;;8.77;5.30;;;;;;;18.35;100.00;100390.00;4956713;28;20696;-81
2023/09/13 01:03:12;;;;;;;7.13;5.40;;;;;;;18.36;100.00;100390.88;4948733;28;20241;-81
2023/09/13 01:05:38;;;;;;;6.40;5.60;;;;;;;18.38;100.00;100391.56;4951701;28;20230;-80
2023/09/13 01:08:05;;;;;;;5.73;5.20;;;;;;;18.38;100.00;100378.06;4946153;28;20208;-81
2023/09/13 01:10:33;;;;;;;6.43;5.83;;;;;;;18.38;100.00;100368.16;4952400;28;20600;-81
2023/09/13 01:12:59;;;;;;;5.87;5.17;;;;;;;18.38;100.00;100341.19;4950936;28;20710;-82
2023/09/13 01:15:28;;;;;;;5.77;5.17;;;;;;;18.38;100.00;100313.38;4948045;28;20580;-80
2023/09/13 01:17:59;;;;;;;6.57;5.57;;;;;;;18.36;100.00;100305.44;4946757;28;20219;-81
2023/09/13 01:20:43;;;;;;;5.97;5.37;;;;;;;18.33;100.00;100311.13;4951614;28;20756;-80
2023/09/13 01:23:25;;;;;;;5.80;5.20;;;;;;;18.30;100.00;100305.19;4953192;28;20211;-80
2023/09/13 01:26:02;;;;;;;5.73;5.10;;;;;;;18.27;100.00;100298.25;4948025;28;20238;-80
2023/09/13 01:28:35;;;;;;;5.87;4.70;;;;;;;18.24;100.00;100301.28;4955477;28;20206;-80
2023/09/13 01:31:05;;;;;;;5.40;4.90;;;;;;;18.22;100.00;100297.91;4952613;28;20231;-81
2023/09/13 01:33:31;;;;;;;4.77;4.33;;;;;;;18.21;100.00;100306.13;4945322;28;20207;-81
2023/09/13 01:35:58;;;;;;;5.43;4.70;;;;;;;18.20;100.00;100307.13;4952166;28;20207;-81
2023/09/13 01:38:24;;;;;;;5.03;4.47;;;;;;;18.21;100.00;100301.59;4952917;28;20219;-80
2023/09/13 01:40:53;;;;;;;5.07;4.57;;;;;;;18.22;100.00;100305.13;4954756;28;20224;-81
2023/09/13 01:43:21;;;;;;;5.40;4.27;;;;;;;18.20;100.00;100294.50;4958902;28;20211;-81
2023/09/13 01:45:49;;;;;;;8.90;4.90;;;;;;;18.21;100.00;100300.75;4952273;28;20232;-80
2023/09/13 01:48:19;;;;;;;6.87;5.00;;;;;;;18.20;100.00;100299.91;4953581;28;20226;-81
2023/09/13 01:50:47;;;;;;;6.83;5.40;;;;;;;18.20;100.00;100299.06;4946706;28;20227;-81
2023/09/13 01:53:13;;;;;;;6.53;4.87;;;;;;;18.20;100.00;100304.44;4955027;28;20223;-81
2023/09/13 01:55:40;;;;;;;6.60;4.83;;;;;;;18.22;100.00;100313.22;4956925;28;20208;-80
2023/09/13 01:58:06;;;;;;;5.60;5.10;;;;;;;18.23;100.00;100310.38;4949288;28;20653;-81
2023/09/13 02:00:33;;;;;;;8.53;6.00;;;;;;;18.25;100.00;100308.38;4953244;28;20236;-81
2023/09/13 02:03:00;;;;;;;5.43;4.93;;;;;;;18.27;100.00;100303.66;4942191;28;20236;-80
2023/09/13 02:05:27;;;;;;;6.43;5.30;;;;;;;18.28;100.00;100299.94;4952193;28;20250;-80
2023/09/13 02:07:53;;;;;;;5.67;4.80;;;;;;;18.28;100.00;100299.09;4960920;28;20610;-80
2023/09/13 02:10:20;;;;;;;7.17;5.57;;;;;;;18.29;100.00;100304.34;4952248;28;20303;-80
2023/09/13 02:12:46;;;;;;;8.00;5.93;;;;;;;18.29;100.00;100304.34;4953296;28;20205;-81
2023/09/13 02:15:13;;;;;;;8.97;5.30;;;;;;;18.30;100.00;100299.81;4956787;28;20211;-81
2023/09/13 02:17:40;;;;;;;5.47;4.90;;;;;;;18.31;100.00;100290.72;4951609;28;20234;-81
2023/09/13 02:20:11;;;;;;;6.47;5.10;;;;;;;18.31;100.00;100293.41;4956817;28;20228;-81
2023/09/13 02:22:37;;;;;;;6.30;5.07;;;;;;;18.31;100.00;100306.88;4953622;28;20232;-81
2023/09/13 02:25:04;;;;;;;6.30;5.70;;;;;;;18.29;100.00;100319.66;4953329;28;20229;-80
2023/09/13 02:27:32;;;;;;;6.93;6.30;;;;;;;18.31;100.00;100317.66;4953668;28;20255;-81
2023/09/13 02:29:58;;;;;;;6.37;5.53;;;;;;;18.32;100.00;100320.22;4953329;28;20238;-81
2023/09/13 02:32:25;;;;;;;6.47;5.87;;;;;;;18.31;100.00;100321.22;4954102;28;20221;-81
2023/09/13 02:34:51;;;;;;;16.23;6.50;;;;;;;18.29;100.00;100322.38;4952284;28;20208;-81
2023/09/13 02:37:19;;;;;;;6.53;5.93;;;;;;;18.28;100.00;100326.06;4952412;28;20211;-80
2023/09/13 02:39:45;;;;;;;7.70;6.90;;;;;;;18.27;100.00;100324.41;4950605;28;20729;-81
2023/09/13 02:42:12;;;;;;;6.10;5.50;;;;;;;18.27;100.00;100329.78;4957401;28;20667;-80
2023/09/13 02:44:39;;;;;;;7.17;6.47;;;;;;;18.27;100.00;100344.09;4961804;28;20216;-81
2023/09/13 02:47:05;;;;;;;6.10;5.40;;;;;;;18.25;100.00;100337.19;4950660;28;20304;-80
2023/09/13 02:49:33;;;;;;;5.57;5.07;;;;;;;18.22;100.00;100349.13;4950139;28;20591;-81
2023/09/13 02:51:59;;;;;;;8.07;5.80;;;;;;;18.21;100.00;100355.50;4954377;28;20636;-81
2023/09/13 02:54:27;;;;;;;6.03;5.40;;;;;;;18.21;100.00;100354.66;4953417;28;20594;-81
2023/09/13 02:56:54;;;;;;;6.17;5.57;;;;;;;18.19;100.00;100354.81;4948453;28;21326;-81
2023/09/13 02:59:20;;;;;;;6.47;5.23;;;;;;;18.20;100.00;100350.25;4953199;28;20624;-81
2023/09/13 03:01:46;;;;;;;6.17;5.57;;;;;;;18.18;100.00;100346.88;4949606;28;20207;-81
2023/09/13 03:04:13;;;;;;;5.50;5.00;;;;;;;18.18;100.00;100350.41;4954072;28;20243;-81
2023/09/13 03:06:40;;;;;;;6.90;5.30;;;;;;;18.14;100.00;100346.31;4952932;28;20232;-81
2023/09/13 03:09:06;;;;;;;6.90;5.30;;;;;;;18.14;100.00;100342.78;4953043;28;20260;-81
2023/09/13 03:11:36;;;;;;;8.23;5.10;;;;;;;18.13;100.00;100343.78;4957576;28;20587;-81
2023/09/13 03:14:03;;;;;;;6.53;5.60;;;;;;;18.10;100.00;100357.56;4950009;28;20217;-81
2023/09/13 03:16:29;;;;;;;6.57;5.67;;;;;;;18.09;100.00;100354.03;4959744;28;20206;-81
2023/09/13 03:18:56;;;;;;;7.70;6.20;;;;;;;18.09;100.00;100345.97;4953157;28;20212;-81
2023/09/13 03:21:22;;;;;;;7.00;6.30;;;;;;;18.09;100.00;100347.81;4957407;28;20555;-81
2023/09/13 03:23:49;;;;;;;8.43;7.57;;;;;;;18.07;100.00;100347.94;4953500;28;20559;-80
2023/09/13 03:26:17;;;;;;;11.20;7.67;;;;;;;18.08;100.00;100354.19;4950833;28;20232;-81
2023/09/13 03:28:46;;;;;;;8.50;7.50;;;;;;;18.08;100.00;100364.97;4946928;28;20208;-81
2023/09/13 03:31:14;;;;;;;8.53;7.40;;;;;;;18.07;100.00;100366.81;4949183;28;20237;-81
2023/09/13 03:33:41;;;;;;;8.97;7.73;;;;;;;18.07;100.00;100363.28;4958016;28;20211;-81
2023/09/13 03:36:09;;;;;;;11.20;9.00;;;;;;;18.06;100.00;100365.13;4951329;28;20218;-81
2023/09/13 03:38:37;;;;;;;10.83;7.90;;;;;;;18.06;100.00;100370.50;4949753;28;20214;-81
2023/09/13 03:41:04;;;;;;;10.27;8.93;;;;;;;18.07;100.00;100360.59;4955245;28;20226;-80
2023/09/13 03:43:31;;;;;;;10.70;9.60;;;;;;;18.08;100.00;100362.28;4949255;28;20213;-81
2023/09/13 03:45:59;;;;;;;13.00;9.63;;;;;;;18.09;100.00;100355.88;4954841;28;20232;-81
2023/09/13 03:48:26;;;;;;;11.17;9.90;;;;;;;18.10;100.00;100360.25;4948668;28;20218;-81
2023/09/13 03:50:52;;;;;;;15.20;10.33;;;;;;;18.10;100.00;100366.50;4956377;28;20238;-81
2023/09/13 03:53:19;;;;;;;13.67;11.30;;;;;;;18.11;100.00;100362.78;4951533;28;20212;-81
2023/09/13 03:55:45;;;;;;;13.50;11.17;;;;;;;18.10;100.00;100358.41;4952764;28;20658;-81
2023/09/13 03:58:12;;;;;;;12.47;10.90;;;;;;;18.10;100.00;100365.63;4946143;28;20582;-81
2023/09/13 04:00:38;;;;;;;12.37;11.03;;;;;;;18.11;100.00;100364.63;4958394;28;20885;-81
2023/09/13 04:03:06;;;;;;;13.60;12.20;;;;;;;18.11;100.00;100368.19;4954141;28;20624;-81
2023/09/13 04:05:33;;;;;;;13.70;11.00;;;;;;;18.09;100.00;100374.75;4954015;28;20751;-81
2023/09/13 04:08:00;;;;;;;13.53;12.03;;;;;;;18.09;100.00;100372.06;4949830;28;20215;-80
2023/09/13 04:10:26;;;;;;;11.50;10.37;;;;;;;18.07;100.00;100369.50;4958475;28;20231;-81
2023/09/13 04:12:53;;;;;;;10.63;9.53;;;;;;;18.06;100.00;100373.22;4948847;28;20672;-80
2023/09/13 04:15:20;;;;;;;10.00;8.90;;;;;;;18.04;100.00;100378.75;4954492;28;20229;-81
2023/09/13 04:17:46;;;;;;;10.27;9.17;;;;;;;18.03;100.00;100377.06;4950347;28;20219;-81
2023/09/13 04:20:14;;;;;;;10.23;7.93;;;;;;;18.02;100.00;100383.44;4951990;28;20235;-81
2023/09/13 04:22:41;;;;;;;8.87;7.93;;;;;;;18.00;100.00;100371.97;4950896;28;20212;-81
2023/09/13 04:25:08;;;;;;;7.83;7.03;;;;;;;17.99;100.00;100372.94;4949417;28;20219;-81
2023/09/13 04:27:35;;;;;;;7.80;7.00;;;;;;;17.98;100.00;100363.16;4950341;28;20696;-80
2023/09/13 04:30:02;;;;;;;12.83;7.43;;;;;;;17.97;100.00;100374.09;4957619;28;20222;-80
2023/09/13 04:32:28;;;;;;;8.43;7.40;;;;;;;17.95;100.00;100373.41;4951762;28;20212;-81
2023/09/13 04:34:55;;;;;;;8.60;7.67;;;;;;;17.92;100.00;100377.25;4951760;28;20215;-81
2023/09/13 04:37:25;;;;;;;8.00;7.20;;;;;;;17.90;100.00;100373.88;4954274;28;20220;-81
2023/09/13 04:39:52;;;;;;;9.47;8.13;;;;;;;17.88;100.00;100370.47;4943682;28;20224;-82
2023/09/13 04:42:18;;;;;;;9.10;8.23;;;;;;;17.86;100.00;100377.00;4950495;28;20297;-81
2023/09/13 04:44:45;;;;;;;9.17;7.87;;;;;;;17.83;100.00;100378.16;4954020;28;20207;-80
2023/09/13 04:47:11;;;;;;;9.10;7.20;;;;;;;17.82;100.00;100381.00;4946336;28;20224;-81
2023/09/13 04:49:38;;;;;;;8.50;7.60;;;;;;;17.81;100.00;100382.00;4950954;28;20228;-81
2023/09/13 04:52:07;;;;;;;8.03;7.00;;;;;;;17.80;100.00;100369.53;4944511;28;20203;-80
2023/09/13 04:54:36;;;;;;;6.70;6.00;;;;;;;17.78;100.00;100368.81;4949326;28;20220;-81
2023/09/13 04:57:02;;;;;;;7.03;6.33;;;;;;;17.79;100.00;100375.91;4940058;28;20210;-81
2023/09/13 04:59:43;;;;;;;6.83;6.13;;;;;;;17.76;100.00;100371.66;4949273;28;20230;-81
2023/09/13 05:02:11;;;;;;;7.10;6.27;;;;;;;17.76;100.00;100374.34;4948080;28;20238;-81
2023/09/13 05:04:37;;;;;;;8.67;6.30;;;;;;;17.75;100.00;100372.66;4945189;28;20204;-81
2023/09/13 05:07:04;;;;;;;7.53;6.27;;;;;;;17.73;100.00;100366.59;4954058;28;20227;-81
2023/09/13 05:09:31;;;;;;;7.40;6.70;;;;;;;17.75;100.00;100369.13;4949122;28;20240;-81
2023/09/13 05:11:59;;;;;;;7.47;6.73;;;;;;;17.74;100.00;100367.41;4947687;28;20207;-81
2023/09/13 05:14:26;;;;;;;9.13;7.17;;;;;;;17.75;100.00;100369.13;4954476;28;20225;-80
2023/09/13 05:16:53;;;;;;;7.30;6.57;;;;;;;17.76;100.00;100365.44;4950273;28;20209;-80
2023/09/13 05:19:19;;;;;;;8.17;5.97;;;;;;;17.76;100.00;100362.72;4954233;28;20242;-80
2023/09/13 05:21:48;;;;;;;7.97;6.27;;;;;;;17.76;100.00;100376.19;4950956;28;20282;-80
2023/09/13 05:24:14;;;;;;;6.87;6.13;;;;;;;17.77;100.00;100375.19;4948514;28;20273;-80
2023/09/13 05:26:41;;;;;;;7.37;6.60;;;;;;;17.80;100.00;100383.84;4953632;28;20227;-80
2023/09/13 05:29:08;;;;;;;7.70;6.90;;;;;;;17.85;100.00;100381.56;4967645;28;20223;-80
2023/09/13 05:31:35;;;;;;;6.33;5.80;;;;;;;17.88;100.00;100380.41;4949080;28;20214;-80
2023/09/13 05:34:02;;;;;;;8.53;5.83;;;;;;;17.93;100.00;100383.47;4945845;28;20668;-80
2023/09/13 05:36:28;;;;;;;7.63;5.90;;;;;;;17.95;100.00;100376.94;4963570;28;20222;-80
2023/09/13 05:38:55;;;;;;;6.37;5.50;;;;;;;17.97;100.00;100379.50;4964043;28;20226;-80
2023/09/13 05:41:21;;;;;;;6.03;5.53;;;;;;;18.01;100.00;100372.81;4948111;28;20215;-80
2023/09/13 05:43:48;;;;;;;6.63;6.00;;;;;;;18.02;100.00;100377.19;4968880;28;20238;-80
2023/09/13 05:46:16;;;;;;;8.33;6.07;;;;;;;18.02;100.00;100377.19;4950222;28;20266;-80
2023/09/13 05:48:42;;;;;;;7.33;6.63;;;;;;;18.05;100.00;100382.28;4960515;28;20216;-79
2023/09/13 05:51:09;;;;;;;7.00;6.10;;;;;;;18.06;100.00;100384.00;4959627;28;20231;-79
2023/09/13 05:53:35;;;;;;;7.03;6.33;;;;;;;18.09;100.00;100385.53;4950104;28;20212;-79
2023/09/13 05:56:03;;;;;;;7.20;6.50;;;;;;;18.10;100.00;100385.34;4977339;28;20398;-79
2023/09/13 05:58:29;;;;;;;6.73;6.13;;;;;;;18.13;100.00;100386.91;4971844;28;20201;-79
2023/09/13 06:00:57;;;;;;;7.90;7.03;;;;;;;18.16;100.00;100400.09;4972890;28;20237;-79
2023/09/13 06:03:25;;;;;;;7.53;6.77;;;;;;;18.17;100.00;100404.47;4952094;28;20676;-79
2023/09/13 06:05:51;;;;;;;8.17;7.13;;;;;;;18.18;100.00;100414.25;4949288;28;20589;-80
2023/09/13 06:08:18;;;;;;;7.13;6.43;;;;;;;18.21;100.00;100422.03;4962188;28;20240;-79
2023/09/13 06:10:45;;;;;;;6.57;5.97;;;;;;;18.22;100.00;100415.66;4950522;28;20235;-79
2023/09/13 06:13:12;;;;;;;6.77;6.17;;;;;;;18.20;100.00;100421.19;4952922;28;20693;-79
2023/09/13 06:15:38;;;;;;;8.07;7.27;;;;;;;18.25;100.00;100426.13;4956363;28;20220;-80
2023/09/13 06:18:05;;;;;;;7.73;7.03;;;;;;;18.27;100.00;100430.34;4960541;28;20629;-79
2023/09/13 06:20:33;;;;;;;7.43;6.70;;;;;;;18.31;100.00;100430.91;4953506;28;20625;-79
2023/09/13 06:23:00;;;;;;;6.83;6.13;;;;;;;18.34;100.00;100430.59;4953241;28;20216;-79
2023/09/13 06:25:26;;;;;;;6.97;6.37;;;;;;;18.37;100.00;100441.94;4952160;28;20223;-79
2023/09/13 06:27:53;;;;;;;7.77;6.53;;;;;;;18.39;100.00;100441.78;4966892;28;20235;-79
2023/09/13 06:30:20;;;;;;;7.43;6.73;;;;;;;18.39;100.00;100439.09;4953840;28;20234;-79
2023/09/13 06:32:46;;;;;;;7.77;6.37;;;;;;;18.41;100.00;100453.28;4957253;28;20222;-79
2023/09/13 06:35:14;;;;;;;7.30;6.60;;;;;;;18.42;100.00;100457.66;4958134;28;20209;-80
2023/09/13 06:37:43;;;;;;;7.57;6.87;;;;;;;18.43;100.00;100456.66;4958437;28;20207;-80
2023/09/13 06:40:10;;;;;;;7.37;6.67;;;;;;;18.44;100.00;100463.75;4952884;28;20257;-80
2023/09/13 06:42:36;;;;;;;7.10;6.40;;;;;;;18.46;100.00;100456.34;4956293;28;20214;-80
2023/09/13 06:45:03;;;;;;;7.47;6.77;;;;;;;18.46;100.00;100452.78;4956037;28;20219;-79
2023/09/13 06:47:30;;;;;;;8.63;6.43;;;;;;;18.49;100.00;100465.97;4968726;28;20231;-80
2023/09/13 06:49:57;;;;;;;6.70;6.10;;;;;;;18.51;100.00;100470.22;4958206;28;20233;-80
2023/09/13 06:52:23;;;;;;;7.30;5.93;;;;;;;18.54;100.00;100475.31;4952417;28;20666;-80
2023/09/13 06:54:51;;;;;;;5.87;5.27;;;;;;;18.59;100.00;100480.28;4967837;28;20568;-80
2023/09/13 06:57:17;;;;;;;5.93;5.40;;;;;;;18.62;100.00;100480.84;4951231;28;20207;-79
2023/09/13 06:59:44;;;;;;;6.30;5.80;;;;;;;18.65;100.00;100483.22;4953220;28;20580;-79
2023/09/13 07:02:10;;;;;;;5.90;5.40;;;;;;;18.68;100.00;100485.59;4970760;28;20599;-79
2023/09/13 07:04:38;;;;;;;5.60;4.97;;;;;;;18.70;100.00;100482.75;4977759;28;20673;-80
2023/09/13 07:07:05;;;;;;;6.10;5.50;;;;;;;18.74;100.00;100486.84;4950009;28;20876;-80
2023/09/13 07:09:31;;;;;;;5.60;5.10;;;;;;;18.76;100.00;100487.56;4964649;28;20262;-79
2023/09/13 07:11:59;;;;;;;7.10;5.13;;;;;;;18.79;100.00;100487.25;4956781;28;20208;-79
2023/09/13 07:14:26;;;;;;;6.13;5.50;;;;;;;18.82;100.00;100492.31;4967009;28;20212;-79
2023/09/13 07:16:52;;;;;;;6.13;5.53;;;;;;;18.87;100.00;100499.94;4957676;28;20208;-79
2023/09/13 07:19:19;;;;;;;7.37;5.63;;;;;;;18.86;100.00;100499.09;4955193;28;20232;-79
2023/09/13 07:21:46;;;;;;;6.70;5.40;;;;;;;18.89;100.00;100500.66;4949237;28;20206;-79
2023/09/13 07:24:12;;;;;;;5.27;4.83;;;;;;;18.96;100.00;100496.34;4959061;28;20206;-79
2023/09/13 07:26:39;;;;;;;5.70;5.13;;;;;;;18.99;100.00;100510.34;4979509;28;20846;-79
2023/09/13 07:29:07;;;;;;;5.70;5.17;;;;;;;19.02;100.00;100501.94;4954501;28;20688;-79
2023/09/13 07:31:33;;;;;;;5.30;4.90;;;;;;;19.05;100.00;100507.03;4984591;28;20215;-79
2023/09/13 07:34:02;;;;;;;5.57;4.77;;;;;;;19.05;100.00;100514.28;4968613;28;20218;-79
2023/09/13 07:36:29;;;;;;;6.10;5.50;;;;;;;19.03;100.00;100519.00;4952532;28;20218;-79
2023/09/13 07:38:56;;;;;;;5.17;4.67;;;;;;;19.03;100.00;100521.69;4952686;28;20218;-79
2023/09/13 07:41:22;;;;;;;5.70;4.83;;;;;;;19.03;100.00;100521.69;4951248;28;20210;-79
2023/09/13 07:43:49;;;;;;;5.73;5.23;;;;;;;19.03;100.00;100529.78;4956876;28;20248;-79
2023/09/13 07:46:16;;;;;;;6.00;5.47;;;;;;;19.01;100.00;100531.78;4954544;28;20395;-79
2023/09/13 07:48:43;;;;;;;6.63;6.03;;;;;;;18.99;100.00;100534.66;4947011;28;20210;-79
2023/09/13 07:51:09;;;;;;;6.80;6.20;;;;;;;19.03;100.00;100541.44;4951558;28;20240;-79
2023/09/13 07:53:36;;;;;;;7.33;6.70;;;;;;;19.03;100.00;100540.59;4952687;28;20220;-79
2023/09/13 07:56:02;;;;;;;6.43;5.83;;;;;;;19.03;100.00;100538.75;4952117;28;20212;-79
2023/09/13 07:58:29;;;;;;;6.43;5.93;;;;;;;19.01;100.00;100542.59;4952795;28;20226;-79
2023/09/13 08:00:56;;;;;;;7.47;6.87;;;;;;;19.02;100.00;100549.69;4955145;28;20834;-80
2023/09/13 08:03:23;;;;;;;7.20;6.50;;;;;;;19.11;100.00;100546.09;4994482;28;20266;-79
2023/09/13 08:05:50;;;;;;;7.00;6.30;;;;;;;19.24;100.00;100554.63;4963015;28;20217;-79
2023/09/13 08:08:22;;;;;;;6.30;5.80;;;;;;;19.40;100.00;100557.47;4962566;28;20229;-79
2023/09/13 08:10:49;;;;;;;6.50;5.90;;;;;;;19.55;100.00;100559.63;4950167;28;20233;-78
2023/09/13 08:13:16;;;;;;;6.47;5.87;;;;;;;19.65;100.00;100558.56;4957249;28;20318;-78
2023/09/13 08:15:43;;;;;;;6.23;5.40;;;;;;;19.72;100.00;100559.59;4951657;28;20216;-79
2023/09/13 08:18:09;;;;;;;5.80;5.07;;;;;;;19.76;100.00;100565.53;4956385;28;20228;-79
2023/09/13 08:20:37;;;;;;;4.45;4.05;;;;;;;19.77;100.00;100578.91;4956230;28;20239;-78
2023/09/13 08:23:04;;;;;;;5.33;4.57;;;;;;;19.77;100.00;100567.22;4959031;28;20214;-79
2023/09/13 08:25:30;;;;;;;4.25;3.85;;;;;;;19.83;100.00;100563.06;4954993;28;20217;-78
2023/09/13 08:27:56;;;;;;;3.90;3.60;;;;;;;19.91;100.00;100571.19;4982869;28;20979;-79
2023/09/13 08:30:23;;;;;;;4.55;4.20;;;;;;;19.99;100.00;100566.72;4949972;28;20232;-79
2023/09/13 08:32:50;;;;;;;4.03;3.72;;;;;;;20.14;100.00;100566.97;4994282;28;20212;-79
2023/09/13 08:35:16;;;;;;;3.90;3.35;;;;;;;20.31;100.00;100565.19;4956983;28;20214;-78
2023/09/13 08:37:44;;;;;;;3.75;3.45;;;;;;;20.43;100.00;100570.16;4951193;28;20209;-79
2023/09/13 08:40:12;;;;;;;3.20;2.97;;;;;;;20.52;99.40;100573.78;4956058;28;20236;-78
2023/09/13 08:42:40;;;;;;;3.65;3.40;;;;;;;20.61;97.80;100578.19;4964529;28;20216;-78
2023/09/13 08:45:08;;;;;;;4.10;3.05;;;;;;;20.70;96.58;100589.91;4950913;28;20217;-79
2023/09/13 08:47:38;;;;;;;3.92;3.53;;;;;;;20.79;96.09;100594.31;4986077;28;20228;-78
2023/09/13 08:50:07;;;;;;;3.63;3.33;;;;;;;20.91;94.77;100586.75;4964887;28;20758;-81
2023/09/13 08:52:35;;;;;;;3.20;2.97;;;;;;;21.02;93.04;100594.56;4974214;28;20204;-79
2023/09/13 08:55:07;;;;;;;3.63;3.33;;;;;;;21.10;92.49;100592.72;4977036;28;20261;-80
2023/09/13 08:57:35;;;;;;;4.40;4.00;;;;;;;21.23;90.88;100591.41;4954160;28;20554;-80
2023/09/13 09:00:01;;;;;;;5.00;4.60;;;;;;;21.38;92.04;100587.03;4966250;28;20232;-80
2023/09/13 09:02:31;;;;;;;4.82;4.38;;;;;;;21.49;90.74;100597.56;4961927;28;20683;-78
2023/09/13 09:05:00;;;;;;;4.53;4.13;;;;;;;21.65;90.49;100588.56;4960720;28;20197;-79
2023/09/13 09:07:27;;;;;;;4.63;4.22;;;;;;;21.83;90.65;100591.94;4971279;28;20244;-80
2023/09/13 09:09:55;;;;;;;4.35;3.95;;;;;;;21.92;87.60;100595.47;4958919;28;20227;-81
2023/09/13 09:12:24;;;;;;;4.65;4.25;;;;;;;21.99;86.38;100591.06;4957737;28;20586;-80
2023/09/13 09:14:53;;;;;;;4.07;3.78;;;;;;;22.11;86.27;100595.13;4953103;28;20654;-80
2023/09/13 09:17:24;;;;;;;3.40;2.90;;;;;;;22.17;83.19;100595.31;4945872;28;20201;-79
2023/09/13 09:19:51;;;;;;;4.00;3.42;;;;;;;22.20;82.00;100596.81;4951969;28;20243;-79
2023/09/13 09:22:20;;;;;;;3.55;3.22;;;;;;;22.28;82.71;100606.78;4949524;28;20270;-80
2023/09/13 09:24:47;;;;;;;3.92;3.38;;;;;;;22.40;81.67;100594.53;4951264;28;20212;-80
2023/09/13 09:27:13;;;;;;;3.63;3.35;;;;;;;22.52;80.41;100601.28;4958399;28;20220;-79
2023/09/13 09:29:42;;;;;;;3.25;2.97;;;;;;;22.57;78.80;100596.19;4971980;28;20582;-80
2023/09/13 09:32:09;;;;;;;3.67;3.30;;;;;;;22.63;78.49;100602.75;4951637;28;20205;-80
2023/09/13 09:34:38;;;;;;;3.40;3.10;;;;;;;22.66;77.87;100599.69;4962717;28;20710;-79
2023/09/13 09:37:07;;;;;;;3.65;3.35;;;;;;;22.65;78.05;100590.72;4959837;28;20208;-80
2023/09/13 09:39:37;;;;;;;3.90;3.42;;;;;;;22.69;78.85;100594.78;4958946;28;20221;-80
2023/09/13 09:42:04;;;;;;;3.53;3.28;;;;;;;22.71;78.30;100605.47;4960090;28;20211;-80
2023/09/13 09:44:30;;;;;;;3.70;3.40;;;;;;;22.77;78.71;100605.59;4968024;28;20203;-80
2023/09/13 09:46:59;;;;;;;3.38;2.80;;;;;;;22.82;77.90;100603.22;4965374;28;20212;-79
2023/09/13 09:49:26;;;;;;;3.00;2.72;;;;;;;22.79;76.50;100600.00;4976144;28;20228;-80
2023/09/13 09:51:53;;;;;;;3.28;2.80;;;;;;;22.76;76.90;100603.88;4959033;28;20197;-80
2023/09/13 09:54:20;;;;;;;2.58;2.38;;;;;;;22.76;77.15;100605.75;4964102;28;20850;-80
2023/09/13 09:56:47;;;;;;;3.00;2.80;;;;;;;22.83;76.78;100606.78;4956645;28;20211;-80
2023/09/13 09:59:13;;;;;;;3.60;3.30;;;;;;;22.88;77.36;100598.09;4969494;28;20713;-80
2023/09/13 10:01:41;;;;;;;3.53;3.22;;;;;;;23.01;78.15;100607.34;4961994;28;20209;-80
2023/09/13 10:04:12;;;;;;;3.50;3.20;;;;;;;23.12;76.91;100603.38;4973878;28;20201;-80
2023/09/13 10:06:56;;;;;;;4.53;4.05;;;;;;;23.18;76.64;100600.81;4968956;28;20216;-80
2023/09/13 10:09:22;;;;;;;3.17;2.85;;;;;;;23.25;75.14;100602.81;4958080;28;20311;-80
2023/09/13 10:11:56;;;;;;;4.00;3.60;;;;;;;23.27;74.64;100601.59;4972944;28;20209;-80
2023/09/13 10:14:26;;;;;;;3.88;3.47;;;;;;;23.32;75.04;100603.75;4961757;28;20217;-80
2023/09/13 10:16:55;;;;;;;3.22;2.88;;;;;;;23.39;74.52;100602.88;4957074;28;20208;-80
2023/09/13 10:19:24;;;;;;;3.70;3.40;;;;;;;23.45;75.39;100601.31;4964473;28;20710;-80
2023/09/13 10:21:51;;;;;;;3.50;3.20;;;;;;;23.52;73.82;100605.00;4962067;28;20239;-80
2023/09/13 10:24:21;;;;;;;5.07;3.70;;;;;;;23.58;74.23;100608.88;4950698;28;20215;-79
2023/09/13 10:26:52;;;;;;;4.38;4.00;;;;;;;23.67;73.44;100616.75;4957800;28;20216;-80
2023/09/13 10:29:24;;;;;;;3.88;3.58;;;;;;;23.71;72.83;100619.97;4966739;28;20232;-80
2023/09/13 10:31:52;;;;;;;3.97;3.42;;;;;;;23.74;71.50;100622.31;4956834;28;20291;-80
2023/09/13 10:34:26;;;;;;;3.88;3.47;;;;;;;23.75;71.73;100624.88;4966479;28;20218;-80
2023/09/13 10:36:59;;;;;;;3.10;2.90;;;;;;;23.73;73.33;100621.47;4970784;28;20201;-80
2023/09/13 10:39:30;;;;;;;1.85;1.40;;;;;;;23.68;75.88;100633.94;4982743;28;20228;-79
2023/09/13 10:42:03;;;;;;;1.52;1.10;;;;;;;23.54;77.41;100622.81;4963200;28;20201;-79
2023/09/13 10:44:29;;;;;;;1.35;1.20;;;;;;;23.47;79.92;100634.56;4979500;28;20581;-80
2023/09/13 10:46:57;;;;;;;1.00;0.95;;;;;;;23.36;80.50;100633.13;4958223;28;20213;-80
2023/09/13 10:49:26;;;;;;;0.80;0.80;;;;;;;23.19;80.58;100639.69;4960642;28;20234;-80
2023/09/13 10:51:54;;;;;;;0.90;0.70;;;;;;;23.02;81.60;100646.22;4963723;28;20231;-80
2023/09/13 10:54:22;;;;;;;0.80;0.75;;;;;;;22.83;82.45;100648.34;4961666;28;20918;-80
2023/09/13 10:56:49;;;;;;;1.08;0.90;;;;;;;22.72;83.59;100646.00;4957205;28;20209;-80
2023/09/13 10:59:19;;;;;;;1.42;1.05;;;;;;;22.62;84.54;100661.63;4962422;28;20859;-80
2023/09/13 11:01:46;;;;;;;1.42;1.30;;;;;;;22.51;85.58;100662.03;4982859;28;20634;-80
2023/09/13 11:04:13;;;;;;;2.28;2.08;;;;;;;22.35;84.96;100657.50;4958111;28;20713;-80
2023/09/13 11:06:43;;;;;;;3.10;2.80;;;;;;;22.22;85.35;100672.59;4952801;28;20204;-80
2023/09/13 11:09:15;;;;;;;2.85;2.65;;;;;;;22.08;85.92;100674.97;4951140;28;20642;-79
2023/09/13 11:11:47;;;;;;;3.30;3.00;;;;;;;21.95;86.39;100682.75;4957910;28;20267;-79
2023/09/13 11:14:17;;;;;;;3.13;2.92;;;;;;;21.86;86.54;100688.34;4964028;28;20580;-79
2023/09/13 11:16:45;;;;;;;4.03;3.72;;;;;;;21.72;86.73;100689.84;4952578;28;20290;-79
2023/09/13 11:19:14;;;;;;;3.70;3.40;;;;;;;21.60;87.39;100694.75;4963733;28;20210;-78
2023/09/13 11:21:51;;;;;;;3.45;3.15;;;;;;;21.50;87.70;100701.38;4958299;28;20212;-78